Time;durP1;ratioP1;P1;durP2;ratioP2;P2;SDS_P1;SDS_P2;PMS_P1;PMS_P2;Temp;Humidity;BMP_temperature;BMP_pressure;BME280_temperature;BME280_humidity;BME280_pressure;Samples;Min_cycle;Max_cycle;Signal;HPM_P1;HPM_P2
2021/03/07 00:01:03;;;;;;;;;;;19.00;35.40;;;;;;500360;237;1081;-72
2021/03/07 00:03:04;;;;;;;;;;;19.00;35.10;;;;;;500459;237;1046;-72
2021/03/07 00:05:05;;;;;;;;;;;19.00;35.40;;;;;;500438;237;2179;-73
2021/03/07 00:07:07;;;;;;;;;;;19.00;35.50;;;;;;500441;237;1047;-72
2021/03/07 00:09:08;;;;;;;;;;;19.10;35.50;;;;;;500498;237;1204;-72
2021/03/07 00:11:09;;;;;;;;;;;19.10;35.50;;;;;;500411;237;1135;-72
2021/03/07 00:13:10;;;;;;;;;;;19.00;35.40;;;;;;500353;237;952;-72
2021/03/07 00:15:12;;;;;;;;;;;19.00;35.40;;;;;;500476;237;1005;-73
2021/03/07 00:17:13;;;;;;;;;;;19.00;35.50;;;;;;500452;237;1175;-73
2021/03/07 00:19:14;;;;;;;;;;;19.00;35.60;;;;;;500420;237;939;-72
2021/03/07 00:21:16;;;;;;;;;;;18.90;35.60;;;;;;500393;237;1353;-72
2021/03/07 00:23:17;;;;;;;;;;;19.00;35.60;;;;;;500394;237;947;-72
2021/03/07 00:25:18;;;;;;;;;;;19.00;35.60;;;;;;500376;237;2180;-72
2021/03/07 00:27:20;;;;;;;;;;;18.90;35.60;;;;;;500353;237;1113;-72
2021/03/07 00:29:21;;;;;;;;;;;19.00;35.70;;;;;;500462;237;1074;-72
2021/03/07 00:31:22;;;;;;;;;;;18.90;35.60;;;;;;500331;237;1201;-72
2021/03/07 00:33:23;;;;;;;;;;;19.00;35.60;;;;;;500421;237;946;-72
2021/03/07 00:35:25;;;;;;;;;;;19.00;35.60;;;;;;500405;237;952;-72
2021/03/07 00:37:26;;;;;;;;;;;18.90;35.60;;;;;;500334;237;1155;-72
2021/03/07 00:39:28;;;;;;;;;;;19.00;35.60;;;;;;500384;237;1038;-72
2021/03/07 00:41:29;;;;;;;;;;;18.90;35.70;;;;;;500297;237;1202;-72
2021/03/07 00:43:30;;;;;;;;;;;18.90;35.80;;;;;;500339;237;950;-72
2021/03/07 00:45:33;;;;;;;;;;;18.90;35.30;;;;;;500394;237;2140;-72
2021/03/07 00:47:33;;;;;;;;;;;19.00;35.70;;;;;;500392;237;1306;-72
2021/03/07 00:49:35;;;;;;;;;;;18.90;35.80;;;;;;500441;237;976;-72
2021/03/07 00:51:36;;;;;;;;;;;19.10;35.70;;;;;;500438;237;1172;-72
2021/03/07 00:53:38;;;;;;;;;;;19.00;35.50;;;;;;500461;237;1036;-72
2021/03/07 00:55:40;;;;;;;;;;;19.00;35.60;;;;;;500350;237;1151;-72
2021/03/07 00:57:41;;;;;;;;;;;18.90;35.60;;;;;;500383;237;961;-73
2021/03/07 00:59:42;;;;;;;;;;;19.00;35.80;;;;;;500423;237;1087;-73
2021/03/07 01:01:43;;;;;;;;;;;18.90;35.80;;;;;;500377;237;967;-72
2021/03/07 01:03:45;;;;;;;;;;;18.90;35.80;;;;;;500391;237;934;-72
2021/03/07 01:05:46;;;;;;;;;;;18.90;35.80;;;;;;500448;237;2171;-72
2021/03/07 01:07:48;;;;;;;;;;;18.90;35.80;;;;;;500399;237;1081;-72
2021/03/07 01:09:49;;;;;;;;;;;19.00;35.60;;;;;;500454;237;930;-72
2021/03/07 01:11:50;;;;;;;;;;;19.00;35.70;;;;;;500437;237;1208;-72
2021/03/07 01:13:52;;;;;;;;;;;19.00;35.60;;;;;;500432;237;916;-72
2021/03/07 01:15:53;;;;;;;;;;;18.90;35.60;;;;;;500428;237;1025;-72
2021/03/07 01:17:54;;;;;;;;;;;18.90;35.70;;;;;;500438;237;1043;-72
2021/03/07 01:19:55;;;;;;;;;;;18.90;35.70;;;;;;500465;237;991;-72
2021/03/07 01:21:57;;;;;;;;;;;19.00;35.50;;;;;;500421;237;1057;-72
2021/03/07 01:23:58;;;;;;;;;;;18.90;35.60;;;;;;500383;237;963;-72
2021/03/07 01:25:59;;;;;;;;;;;19.00;35.00;;;;;;500402;237;2168;-72
2021/03/07 01:28:01;;;;;;;;;;;19.00;35.60;;;;;;500370;237;1196;-72
2021/03/07 01:30:02;;;;;;;;;;;19.00;35.80;;;;;;500387;237;1128;-72
2021/03/07 01:32:03;;;;;;;;;;;18.90;35.70;;;;;;500368;237;1077;-72
2021/03/07 01:34:04;;;;;;;;;;;18.90;35.80;;;;;;500402;237;965;-72
2021/03/07 01:36:06;;;;;;;;;;;18.90;35.80;;;;;;500480;238;1191;-72
2021/03/07 01:38:07;;;;;;;;;;;18.90;35.80;;;;;;500410;237;1033;-73
2021/03/07 01:40:08;;;;;;;;;;;18.90;35.60;;;;;;500429;237;919;-73
2021/03/07 01:42:09;;;;;;;;;;;18.90;35.70;;;;;;500437;237;1177;-72
2021/03/07 01:44:11;;;;;;;;;;;19.00;35.70;;;;;;500340;237;931;-73
2021/03/07 01:46:12;;;;;;;;;;;18.90;35.60;;;;;;500382;237;2137;-73
2021/03/07 01:48:13;;;;;;;;;;;19.00;35.50;;;;;;500382;237;1105;-73
2021/03/07 01:50:15;;;;;;;;;;;19.00;35.50;;;;;;500394;237;1063;-72
2021/03/07 01:52:16;;;;;;;;;;;18.90;35.60;;;;;;500392;237;1178;-73
2021/03/07 01:54:17;;;;;;;;;;;18.90;35.70;;;;;;500395;237;987;-73
2021/03/07 01:56:18;;;;;;;;;;;18.90;35.70;;;;;;500355;237;1192;-72
2021/03/07 01:58:20;;;;;;;;;;;18.90;35.60;;;;;;500566;237;1018;-72
2021/03/07 02:00:21;;;;;;;;;;;18.90;35.70;;;;;;500430;237;928;-72
2021/03/07 02:02:22;;;;;;;;;;;18.90;35.70;;;;;;500444;237;1196;-72
2021/03/07 02:04:24;;;;;;;;;;;18.80;35.60;;;;;;500404;237;959;-72
2021/03/07 02:06:25;;;;;;;;;;;18.90;35.40;;;;;;500379;237;2330;-72
2021/03/07 02:08:26;;;;;;;;;;;18.80;35.60;;;;;;500357;237;952;-72
2021/03/07 02:10:27;;;;;;;;;;;18.90;35.70;;;;;;500379;237;989;-72
2021/03/07 02:12:29;;;;;;;;;;;18.90;35.70;;;;;;500294;237;1176;-72
2021/03/07 02:14:30;;;;;;;;;;;18.90;35.70;;;;;;500375;237;960;-72
2021/03/07 02:16:31;;;;;;;;;;;18.90;35.70;;;;;;500310;237;1140;-72
2021/03/07 02:18:33;;;;;;;;;;;18.90;35.70;;;;;;500397;237;1177;-72
2021/03/07 02:20:34;;;;;;;;;;;18.90;35.70;;;;;;500381;237;1009;-73
2021/03/07 02:22:35;;;;;;;;;;;18.90;35.80;;;;;;500379;237;1207;-72
2021/03/07 02:24:36;;;;;;;;;;;18.90;35.70;;;;;;500454;237;1049;-72
2021/03/07 02:26:38;;;;;;;;;;;18.80;35.70;;;;;;500336;237;2180;-72
2021/03/07 02:28:39;;;;;;;;;;;18.90;35.70;;;;;;500402;237;966;-72
2021/03/07 02:30:40;;;;;;;;;;;18.90;35.70;;;;;;500423;237;947;-72
2021/03/07 02:32:42;;;;;;;;;;;18.80;35.70;;;;;;500414;237;1059;-72
2021/03/07 02:34:43;;;;;;;;;;;18.80;35.70;;;;;;500419;237;958;-72
2021/03/07 02:36:44;;;;;;;;;;;18.90;35.80;;;;;;500404;236;1276;-72
2021/03/07 02:38:45;;;;;;;;;;;18.80;35.80;;;;;;500376;237;972;-72
2021/03/07 02:40:47;;;;;;;;;;;18.90;35.80;;;;;;500375;237;933;-72
2021/03/07 02:42:48;;;;;;;;;;;18.80;35.70;;;;;;500375;237;1145;-72
2021/03/07 02:44:49;;;;;;;;;;;18.80;35.20;;;;;;500434;237;930;-72
2021/03/07 02:46:51;;;;;;;;;;;18.80;35.70;;;;;;500352;237;2228;-73
2021/03/07 02:48:52;;;;;;;;;;;18.80;35.80;;;;;;500448;237;927;-72
2021/03/07 02:50:53;;;;;;;;;;;18.80;35.80;;;;;;500467;237;1048;-73
2021/03/07 02:52:54;;;;;;;;;;;19.00;35.60;;;;;;500513;237;1045;-72
2021/03/07 02:54:56;;;;;;;;;;;19.00;35.60;;;;;;500405;237;933;-72
2021/03/07 02:56:57;;;;;;;;;;;18.90;35.60;;;;;;500407;237;1150;-72
2021/03/07 02:58:59;;;;;;;;;;;18.90;35.70;;;;;;500416;237;946;-72
2021/03/07 03:01:00;;;;;;;;;;;18.90;35.80;;;;;;500481;237;1411;-72
2021/03/07 03:03:01;;;;;;;;;;;18.80;35.90;;;;;;500425;237;1132;-73
2021/03/07 03:05:02;;;;;;;;;;;18.80;35.90;;;;;;500461;237;1013;-73
2021/03/07 03:07:03;;;;;;;;;;;18.70;35.90;;;;;;500384;237;2175;-72
2021/03/07 03:09:05;;;;;;;;;;;18.80;36.00;;;;;;500317;237;1034;-72
2021/03/07 03:11:06;;;;;;;;;;;18.70;36.00;;;;;;500435;237;1127;-72
2021/03/07 03:13:07;;;;;;;;;;;18.70;35.90;;;;;;500461;237;1171;-72
2021/03/07 03:15:08;;;;;;;;;;;18.80;35.90;;;;;;500421;237;1108;-72
2021/03/07 03:17:10;;;;;;;;;;;18.70;36.00;;;;;;500411;237;1175;-72
2021/03/07 03:19:11;;;;;;;;;;;18.70;35.90;;;;;;500428;237;1033;-73
2021/03/07 03:21:12;;;;;;;;;;;18.80;36.00;;;;;;500422;237;936;-73
2021/03/07 03:23:14;;;;;;;;;;;18.70;36.00;;;;;;500478;237;1056;-73
2021/03/07 03:25:15;;;;;;;;;;;18.70;36.00;;;;;;500476;237;908;-73
2021/03/07 03:27:16;;;;;;;;;;;18.70;35.30;;;;;;500286;237;2231;-72
2021/03/07 03:29:17;;;;;;;;;;;18.60;36.00;;;;;;500402;237;982;-72
2021/03/07 03:31:19;;;;;;;;;;;18.70;36.00;;;;;;500350;237;1133;-72
2021/03/07 03:33:20;;;;;;;;;;;18.70;35.90;;;;;;500419;237;1042;-72
2021/03/07 03:35:21;;;;;;;;;;;18.80;35.90;;;;;;500480;237;1077;-72
2021/03/07 03:37:23;;;;;;;;;;;18.70;36.00;;;;;;500403;237;1207;-72
2021/03/07 03:39:24;;;;;;;;;;;18.70;36.10;;;;;;500418;237;989;-72
2021/03/07 03:41:25;;;;;;;;;;;18.70;36.00;;;;;;500547;237;1240;-72
2021/03/07 03:43:27;;;;;;;;;;;18.60;36.00;;;;;;500440;237;1162;-73
2021/03/07 03:45:28;;;;;;;;;;;18.70;36.00;;;;;;500404;237;986;-72
2021/03/07 03:47:29;;;;;;;;;;;18.70;36.00;;;;;;500332;237;2132;-72
2021/03/07 03:49:31;;;;;;;;;;;18.60;36.00;;;;;;500320;237;1502;-72
2021/03/07 03:51:32;;;;;;;;;;;18.70;36.00;;;;;;500352;237;940;-72
2021/03/07 03:53:33;;;;;;;;;;;18.70;35.90;;;;;;500477;237;943;-73
2021/03/07 03:55:34;;;;;;;;;;;18.70;35.90;;;;;;500321;237;1046;-72
2021/03/07 03:57:36;;;;;;;;;;;18.60;35.90;;;;;;500331;237;1144;-72
2021/03/07 03:59:37;;;;;;;;;;;18.60;36.10;;;;;;500406;237;1060;-72
2021/03/07 04:01:38;;;;;;;;;;;18.60;36.00;;;;;;500359;237;949;-72
2021/03/07 04:03:40;;;;;;;;;;;18.70;36.00;;;;;;500397;237;1064;-72
2021/03/07 04:05:41;;;;;;;;;;;18.60;36.00;;;;;;500363;237;945;-73
2021/03/07 04:07:42;;;;;;;;;;;18.70;35.60;;;;;;500425;237;2179;-73
2021/03/07 04:09:44;;;;;;;;;;;18.60;36.10;;;;;;500413;237;987;-72
2021/03/07 04:11:45;;;;;;;;;;;18.60;36.20;;;;;;500392;237;1209;-72
2021/03/07 04:13:46;;;;;;;;;;;18.60;36.30;;;;;;500360;237;1154;-72
2021/03/07 04:15:48;;;;;;;;;;;18.60;36.30;;;;;;500359;237;955;-72
2021/03/07 04:17:49;;;;;;;;;;;18.60;36.20;;;;;;500364;237;1067;-72
2021/03/07 04:19:50;;;;;;;;;;;18.60;36.20;;;;;;500414;237;993;-72
2021/03/07 04:21:51;;;;;;;;;;;18.60;36.20;;;;;;500324;237;1081;-72
2021/03/07 04:23:53;;;;;;;;;;;18.60;36.30;;;;;;500390;237;999;-72
2021/03/07 04:25:54;;;;;;;;;;;18.50;35.80;;;;;;500355;237;1066;-72
2021/03/07 04:27:55;;;;;;;;;;;18.50;36.50;;;;;;500421;235;2109;-72
2021/03/07 04:29:56;;;;;;;;;;;18.50;36.50;;;;;;500387;237;1036;-72
2021/03/07 04:31:58;;;;;;;;;;;18.50;36.50;;;;;;500353;237;1188;-73
2021/03/07 04:33:59;;;;;;;;;;;18.50;36.40;;;;;;500351;237;969;-72
2021/03/07 04:36:00;;;;;;;;;;;18.60;36.40;;;;;;500386;237;1056;-72
2021/03/07 04:38:02;;;;;;;;;;;18.50;36.30;;;;;;500306;237;939;-72
2021/03/07 04:40:03;;;;;;;;;;;18.50;36.40;;;;;;500399;237;1011;-73
2021/03/07 04:42:04;;;;;;;;;;;18.50;36.40;;;;;;500424;237;1075;-72
2021/03/07 04:44:05;;;;;;;;;;;18.60;36.40;;;;;;500474;237;1147;-72
2021/03/07 04:46:07;;;;;;;;;;;18.70;36.30;;;;;;500470;237;1120;-72
2021/03/07 04:48:08;;;;;;;;;;;18.70;36.10;;;;;;500392;237;2101;-72
2021/03/07 04:50:09;;;;;;;;;;;18.70;36.10;;;;;;500400;237;940;-72
2021/03/07 04:52:11;;;;;;;;;;;18.60;36.20;;;;;;500439;237;1134;-72
2021/03/07 04:54:12;;;;;;;;;;;18.60;36.20;;;;;;500402;237;954;-72
2021/03/07 04:56:13;;;;;;;;;;;18.60;36.30;;;;;;500482;237;1152;-73
2021/03/07 04:58:14;;;;;;;;;;;18.70;36.20;;;;;;500412;237;1163;-72
2021/03/07 05:00:16;;;;;;;;;;;18.60;36.20;;;;;;500467;237;1063;-72
2021/03/07 05:02:17;;;;;;;;;;;18.60;36.20;;;;;;500367;237;1100;-72
2021/03/07 05:04:18;;;;;;;;;;;18.70;36.10;;;;;;500451;237;958;-72
2021/03/07 05:06:19;;;;;;;;;;;18.60;35.50;;;;;;500409;237;2364;-72
2021/03/07 05:08:21;;;;;;;;;;;18.70;36.00;;;;;;500410;237;1000;-72
2021/03/07 05:10:22;;;;;;;;;;;18.70;36.10;;;;;;500398;237;959;-72
2021/03/07 05:12:23;;;;;;;;;;;18.60;36.10;;;;;;500377;237;995;-72
2021/03/07 05:14:25;;;;;;;;;;;18.60;36.20;;;;;;500417;237;1187;-72
2021/03/07 05:16:26;;;;;;;;;;;18.70;36.20;;;;;;500380;237;1224;-72
2021/03/07 05:18:27;;;;;;;;;;;18.70;36.10;;;;;;500368;237;1217;-72
2021/03/07 05:20:29;;;;;;;;;;;18.60;36.20;;;;;;500362;237;963;-73
2021/03/07 05:22:30;;;;;;;;;;;18.60;36.10;;;;;;500444;237;1101;-72
2021/03/07 05:24:31;;;;;;;;;;;18.50;36.30;;;;;;500428;237;1050;-72
2021/03/07 05:26:32;;;;;;;;;;;18.60;36.20;;;;;;500312;237;2180;-72
2021/03/07 05:28:35;;;;;;;;;;;18.60;36.20;;;;;;500427;234;1313;-72
2021/03/07 05:30:36;;;;;;;;;;;18.60;36.20;;;;;;500429;237;1498;-72
2021/03/07 05:32:37;;;;;;;;;;;18.60;36.10;;;;;;500339;237;1101;-72
2021/03/07 05:34:38;;;;;;;;;;;18.70;36.20;;;;;;500414;237;919;-73
2021/03/07 05:36:40;;;;;;;;;;;18.70;36.00;;;;;;500420;237;1079;-72
2021/03/07 05:38:41;;;;;;;;;;;18.70;35.90;;;;;;500413;237;968;-72
2021/03/07 05:40:42;;;;;;;;;;;18.70;36.00;;;;;;500402;237;1238;-72
2021/03/07 05:42:43;;;;;;;;;;;18.70;36.00;;;;;;500449;237;1043;-73
2021/03/07 05:44:45;;;;;;;;;;;18.70;36.00;;;;;;500419;237;1103;-72
2021/03/07 05:46:46;;;;;;;;;;;18.70;35.70;;;;;;500390;237;2124;-73
2021/03/07 05:48:47;;;;;;;;;;;18.70;35.90;;;;;;500353;237;1089;-72
2021/03/07 05:50:49;;;;;;;;;;;18.70;36.00;;;;;;500308;237;1152;-73
2021/03/07 05:52:50;;;;;;;;;;;18.80;35.90;;;;;;500396;237;943;-72
2021/03/07 05:54:51;;;;;;;;;;;18.80;35.80;;;;;;500372;237;992;-73
2021/03/07 05:56:52;;;;;;;;;;;19.00;35.70;;;;;;500365;237;1113;-73
2021/03/07 05:58:54;;;;;;;;;;;18.90;35.60;;;;;;500441;234;1298;-72
2021/03/07 06:00:55;;;;;;;;;;;18.80;35.70;;;;;;500417;237;1168;-72
2021/03/07 06:02:56;;;;;;;;;;;18.80;35.70;;;;;;500494;237;1060;-72
2021/03/07 06:04:58;;;;;;;;;;;18.90;35.60;;;;;;500345;237;984;-72
2021/03/07 06:06:59;;;;;;;;;;;18.90;35.50;;;;;;500397;237;2188;-72
2021/03/07 06:09:00;;;;;;;;;;;18.90;35.60;;;;;;500326;237;954;-72
2021/03/07 06:11:02;;;;;;;;;;;18.90;35.60;;;;;;500386;237;1067;-73
2021/03/07 06:13:04;;;;;;;;;;;18.80;35.80;;;;;;500355;237;1103;-72
2021/03/07 06:15:04;;;;;;;;;;;18.80;35.70;;;;;;500388;237;1465;-72
2021/03/07 06:17:05;;;;;;;;;;;18.80;35.80;;;;;;500341;237;1036;-72
2021/03/07 06:19:07;;;;;;;;;;;18.80;35.70;;;;;;500322;237;955;-72
2021/03/07 06:21:08;;;;;;;;;;;18.80;35.80;;;;;;500374;237;1027;-72
2021/03/07 06:23:09;;;;;;;;;;;18.80;35.70;;;;;;500339;237;964;-72
2021/03/07 06:25:10;;;;;;;;;;;18.80;35.90;;;;;;500398;237;1025;-72
2021/03/07 06:27:12;;;;;;;;;;;18.70;35.90;;;;;;500319;237;2184;-72
2021/03/07 06:29:13;;;;;;;;;;;18.70;35.80;;;;;;500413;234;1278;-72
2021/03/07 06:31:14;;;;;;;;;;;18.80;35.60;;;;;;500433;237;1037;-73
2021/03/07 06:33:16;;;;;;;;;;;18.70;35.80;;;;;;500440;237;1042;-72
2021/03/07 06:35:17;;;;;;;;;;;18.80;35.70;;;;;;500384;237;979;-72
2021/03/07 06:37:18;;;;;;;;;;;18.80;35.80;;;;;;500345;237;972;-72
2021/03/07 06:39:19;;;;;;;;;;;18.80;35.70;;;;;;500345;237;971;-72
2021/03/07 06:41:21;;;;;;;;;;;18.80;35.80;;;;;;500382;237;918;-72
2021/03/07 06:43:22;;;;;;;;;;;18.70;35.80;;;;;;500384;237;1080;-72
2021/03/07 06:45:23;;;;;;;;;;;18.70;35.80;;;;;;500410;237;1178;-72
2021/03/07 06:47:25;;;;;;;;;;;18.70;35.80;;;;;;500442;237;2141;-72
2021/03/07 06:49:26;;;;;;;;;;;18.70;35.80;;;;;;500306;237;968;-72
2021/03/07 06:51:28;;;;;;;;;;;18.80;35.80;;;;;;500273;237;1031;-72
2021/03/07 06:53:29;;;;;;;;;;;18.70;35.80;;;;;;500390;237;944;-72
2021/03/07 06:55:30;;;;;;;;;;;18.80;35.80;;;;;;500361;237;1089;-73
2021/03/07 06:57:32;;;;;;;;;;;18.70;35.80;;;;;;500381;237;967;-72
2021/03/07 06:59:33;;;;;;;;;;;18.70;35.90;;;;;;500399;234;1294;-72
2021/03/07 07:01:34;;;;;;;;;;;18.60;36.00;;;;;;500373;237;1043;-72
2021/03/07 07:03:35;;;;;;;;;;;18.60;36.00;;;;;;500383;237;977;-72
2021/03/07 07:05:37;;;;;;;;;;;18.60;35.90;;;;;;500355;237;1221;-72
2021/03/07 07:07:38;;;;;;;;;;;18.70;35.80;;;;;;500304;237;2140;-72
2021/03/07 07:09:39;;;;;;;;;;;18.70;35.90;;;;;;500311;237;952;-72
2021/03/07 07:11:41;;;;;;;;;;;18.70;35.80;;;;;;500363;237;1014;-72
2021/03/07 07:13:42;;;;;;;;;;;18.60;35.80;;;;;;500356;237;1054;-72
2021/03/07 07:15:43;;;;;;;;;;;18.70;35.80;;;;;;500360;237;1209;-73
2021/03/07 07:17:44;;;;;;;;;;;18.60;35.80;;;;;;500396;237;972;-72
2021/03/07 07:19:46;;;;;;;;;;;18.70;35.30;;;;;;500302;237;1041;-72
2021/03/07 07:21:47;;;;;;;;;;;18.70;35.80;;;;;;500387;237;969;-72
2021/03/07 07:23:48;;;;;;;;;;;18.60;35.90;;;;;;500369;237;947;-72
2021/03/07 07:25:51;;;;;;;;;;;18.70;35.80;;;;;;500318;237;1106;-72
2021/03/07 07:27:52;;;;;;;;;;;18.70;35.80;;;;;;500315;237;2179;-72
2021/03/07 07:29:54;;;;;;;;;;;18.70;35.90;;;;;;500480;237;1137;-73
2021/03/07 07:31:55;;;;;;;;;;;18.80;35.70;;;;;;500240;237;1147;-72
2021/03/07 07:33:56;;;;;;;;;;;18.70;35.70;;;;;;500342;237;938;-72
2021/03/07 07:35:57;;;;;;;;;;;18.70;35.90;;;;;;500402;237;1184;-72
2021/03/07 07:38:00;;;;;;;;;;;18.80;35.80;;;;;;500346;237;1060;-72
2021/03/07 07:40:00;;;;;;;;;;;18.80;35.70;;;;;;500358;237;1404;-72
2021/03/07 07:42:01;;;;;;;;;;;18.70;35.80;;;;;;500290;237;1213;-73
2021/03/07 07:44:03;;;;;;;;;;;18.70;35.90;;;;;;500200;237;953;-72
2021/03/07 07:46:04;;;;;;;;;;;18.70;35.90;;;;;;500308;237;1159;-72
2021/03/07 07:48:05;;;;;;;;;;;18.70;35.90;;;;;;500327;237;2140;-72
2021/03/07 07:50:06;;;;;;;;;;;18.70;35.90;;;;;;500280;237;1103;-72
2021/03/07 07:52:08;;;;;;;;;;;18.70;36.00;;;;;;500240;237;1236;-73
2021/03/07 07:54:09;;;;;;;;;;;18.80;35.90;;;;;;500239;237;1061;-73
2021/03/07 07:56:11;;;;;;;;;;;18.80;35.90;;;;;;500243;237;1185;-72
2021/03/07 07:58:12;;;;;;;;;;;18.70;35.90;;;;;;500310;237;969;-72
2021/03/07 08:00:13;;;;;;;;;;;18.80;35.90;;;;;;500254;237;1088;-72
2021/03/07 08:02:16;;;;;;;;;;;18.70;35.90;;;;;;500295;237;1134;-72
2021/03/07 08:04:17;;;;;;;;;;;18.70;35.90;;;;;;500313;237;994;-72
2021/03/07 08:06:18;;;;;;;;;;;18.70;36.00;;;;;;500327;237;1091;-72
2021/03/07 08:08:20;;;;;;;;;;;18.70;35.90;;;;;;500313;237;2136;-72
2021/03/07 08:10:21;;;;;;;;;;;18.80;35.90;;;;;;500268;237;976;-72
2021/03/07 08:12:22;;;;;;;;;;;18.80;35.50;;;;;;500251;237;1143;-72
2021/03/07 08:14:23;;;;;;;;;;;18.70;35.80;;;;;;500289;237;981;-72
2021/03/07 08:16:25;;;;;;;;;;;18.80;35.90;;;;;;500247;237;1215;-72
2021/03/07 08:18:26;;;;;;;;;;;18.80;35.80;;;;;;500291;237;982;-72
2021/03/07 08:20:27;;;;;;;;;;;18.80;35.80;;;;;;500283;237;963;-72
2021/03/07 08:22:29;;;;;;;;;;;18.80;35.80;;;;;;500268;237;1108;-72
2021/03/07 08:24:30;;;;;;;;;;;18.90;35.80;;;;;;500299;237;1151;-72
2021/03/07 08:26:31;;;;;;;;;;;18.90;35.80;;;;;;500167;237;974;-72
2021/03/07 08:28:32;;;;;;;;;;;18.80;35.80;;;;;;500357;237;2183;-72
2021/03/07 08:30:34;;;;;;;;;;;18.80;35.80;;;;;;500345;237;1142;-72
2021/03/07 08:32:36;;;;;;;;;;;18.80;35.80;;;;;;500249;237;1014;-72
2021/03/07 08:34:36;;;;;;;;;;;18.80;35.80;;;;;;500280;237;1453;-72
2021/03/07 08:36:38;;;;;;;;;;;18.80;35.70;;;;;;500440;237;1048;-73
2021/03/07 08:38:39;;;;;;;;;;;18.80;35.70;;;;;;500410;237;1062;-73
2021/03/07 08:40:40;;;;;;;;;;;18.80;35.60;;;;;;500356;237;1063;-72
2021/03/07 08:42:41;;;;;;;;;;;18.90;35.70;;;;;;500305;237;939;-72
2021/03/07 08:44:43;;;;;;;;;;;18.90;35.60;;;;;;500331;237;934;-72
2021/03/07 08:46:44;;;;;;;;;;;18.80;35.70;;;;;;500249;237;1097;-72
2021/03/07 08:48:45;;;;;;;;;;;18.80;35.70;;;;;;500330;237;2176;-72
2021/03/07 08:50:46;;;;;;;;;;;18.80;35.60;;;;;;500260;237;1078;-72
2021/03/07 08:52:48;;;;;;;;;;;19.00;35.40;;;;;;500280;237;1026;-72
2021/03/07 08:54:49;;;;;;;;;;;19.10;35.40;;;;;;500328;237;1099;-72
2021/03/07 08:56:50;;;;;;;;;;;19.10;35.20;;;;;;500334;237;1094;-72
2021/03/07 08:58:52;;;;;;;;;;;19.10;35.30;;;;;;500393;237;949;-72
2021/03/07 09:00:53;;;;;;;;;;;19.10;35.20;;;;;;500201;237;1300;-72
2021/03/07 09:02:54;;;;;;;;;;;19.20;35.10;;;;;;500349;237;987;-72
2021/03/07 09:04:55;;;;;;;;;;;19.30;35.00;;;;;;500363;237;1010;-72
2021/03/07 09:06:57;;;;;;;;;;;19.30;34.90;;;;;;500314;237;1089;-72
2021/03/07 09:08:58;;;;;;;;;;;19.30;34.80;;;;;;500362;237;2196;-72
2021/03/07 09:11:00;;;;;;;;;;;19.40;34.80;;;;;;500442;237;953;-73
2021/03/07 09:13:01;;;;;;;;;;;19.40;34.80;;;;;;500376;237;1083;-72
2021/03/07 09:15:02;;;;;;;;;;;19.40;34.70;;;;;;500388;237;961;-73
2021/03/07 09:17:03;;;;;;;;;;;19.50;34.70;;;;;;500402;237;1289;-73
2021/03/07 09:19:05;;;;;;;;;;;19.60;34.60;;;;;;500392;237;973;-73
2021/03/07 09:21:06;;;;;;;;;;;19.50;34.50;;;;;;500313;237;1077;-72
2021/03/07 09:23:07;;;;;;;;;;;19.60;34.60;;;;;;500337;237;1130;-72
2021/03/07 09:25:09;;;;;;;;;;;19.70;34.40;;;;;;500286;237;1000;-72
2021/03/07 09:27:10;;;;;;;;;;;19.70;34.30;;;;;;500301;237;1462;-73
2021/03/07 09:29:11;;;;;;;;;;;19.80;34.40;;;;;;500338;237;2136;-72
2021/03/07 09:31:12;;;;;;;;;;;19.80;34.50;;;;;;500363;237;1127;-73
2021/03/07 09:33:14;;;;;;;;;;;19.80;34.50;;;;;;500383;237;1096;-72
2021/03/07 09:35:15;;;;;;;;;;;19.90;34.50;;;;;;500434;237;984;-72
2021/03/07 09:37:16;;;;;;;;;;;19.90;34.50;;;;;;500250;237;1199;-73
2021/03/07 09:39:18;;;;;;;;;;;19.90;34.50;;;;;;500344;237;990;-72
2021/03/07 09:41:19;;;;;;;;;;;19.80;34.40;;;;;;500330;237;1456;-72
2021/03/07 09:43:20;;;;;;;;;;;19.90;34.50;;;;;;500286;237;1058;-72
2021/03/07 09:45:22;;;;;;;;;;;19.90;34.40;;;;;;500358;237;1203;-73
2021/03/07 09:47:23;;;;;;;;;;;19.90;34.40;;;;;;500327;237;1147;-72
2021/03/07 09:49:24;;;;;;;;;;;19.90;34.30;;;;;;500422;237;2192;-73
2021/03/07 09:51:25;;;;;;;;;;;20.00;34.30;;;;;;500371;237;1174;-73
2021/03/07 09:53:27;;;;;;;;;;;20.00;34.20;;;;;;500425;237;1050;-72
2021/03/07 09:55:28;;;;;;;;;;;20.10;34.20;;;;;;500415;237;1062;-72
2021/03/07 09:57:29;;;;;;;;;;;20.00;34.20;;;;;;500389;237;1079;-72
2021/03/07 09:59:32;;;;;;;;;;;20.00;34.20;;;;;;500314;237;1001;-72
2021/03/07 10:01:32;;;;;;;;;;;20.10;34.10;;;;;;500364;237;1346;-72
2021/03/07 10:03:33;;;;;;;;;;;20.00;34.10;;;;;;500331;237;982;-72
2021/03/07 10:05:35;;;;;;;;;;;20.10;34.10;;;;;;500326;237;937;-72
2021/03/07 10:07:36;;;;;;;;;;;20.10;34.10;;;;;;500357;237;1007;-72
2021/03/07 10:09:37;;;;;;;;;;;20.10;34.00;;;;;;500369;237;2179;-72
2021/03/07 10:11:38;;;;;;;;;;;20.20;33.90;;;;;;500336;237;1049;-72
2021/03/07 10:13:40;;;;;;;;;;;20.20;33.90;;;;;;500379;237;952;-72
2021/03/07 10:15:41;;;;;;;;;;;20.20;33.90;;;;;;500208;237;1050;-72
2021/03/07 10:17:42;;;;;;;;;;;20.30;33.70;;;;;;500362;237;1161;-73
2021/03/07 10:19:45;;;;;;;;;;;20.30;33.70;;;;;;500301;237;973;-73
2021/03/07 10:21:45;;;;;;;;;;;20.40;33.70;;;;;;500256;237;1558;-72
2021/03/07 10:23:47;;;;;;;;;;;20.50;33.60;;;;;;500451;237;1072;-72
2021/03/07 10:25:48;;;;;;;;;;;20.50;33.50;;;;;;500267;237;991;-72
2021/03/07 10:27:49;;;;;;;;;;;20.50;33.40;;;;;;500251;237;1111;-72
2021/03/07 10:29:51;;;;;;;;;;;20.50;33.50;;;;;;500211;237;2149;-72
2021/03/07 10:31:52;;;;;;;;;;;20.60;33.40;;;;;;500243;237;1306;-72
2021/03/07 10:33:53;;;;;;;;;;;20.60;33.30;;;;;;500313;237;1007;-73
2021/03/07 10:35:54;;;;;;;;;;;20.60;33.30;;;;;;500182;237;1140;-73
2021/03/07 10:37:56;;;;;;;;;;;20.60;33.40;;;;;;500260;237;1128;-73
2021/03/07 10:39:57;;;;;;;;;;;20.70;33.30;;;;;;500349;237;1241;-72
2021/03/07 10:41:58;;;;;;;;;;;20.70;33.20;;;;;;500233;237;1218;-73
2021/03/07 10:44:00;;;;;;;;;;;20.70;33.20;;;;;;500323;237;1205;-72
2021/03/07 10:46:01;;;;;;;;;;;20.80;33.00;;;;;;500324;237;1083;-72
2021/03/07 10:48:02;;;;;;;;;;;20.90;33.00;;;;;;500313;237;1307;-73
2021/03/07 10:50:03;;;;;;;;;;;20.90;33.10;;;;;;500336;237;2136;-73
2021/03/07 10:52:05;;;;;;;;;;;21.00;33.10;;;;;;500368;237;1035;-73
2021/03/07 10:54:06;;;;;;;;;;;21.00;33.00;;;;;;500273;237;1044;-73
2021/03/07 10:56:07;;;;;;;;;;;21.10;32.90;;;;;;500227;237;1152;-73
2021/03/07 10:58:09;;;;;;;;;;;21.00;33.00;;;;;;500317;237;1103;-73
2021/03/07 11:00:10;;;;;;;;;;;21.00;33.10;;;;;;500364;237;951;-73
2021/03/07 11:02:11;;;;;;;;;;;21.10;33.00;;;;;;500358;237;1216;-73
2021/03/07 11:04:12;;;;;;;;;;;21.20;32.80;;;;;;500410;237;1059;-73
2021/03/07 11:06:15;;;;;;;;;;;21.20;32.80;;;;;;500335;237;963;-73
2021/03/07 11:08:15;;;;;;;;;;;21.20;32.80;;;;;;500514;237;1364;-73
2021/03/07 11:10:16;;;;;;;;;;;21.20;32.70;;;;;;500374;237;2461;-73
2021/03/07 11:12:17;;;;;;;;;;;21.30;32.80;;;;;;500266;237;1081;-73
2021/03/07 11:14:19;;;;;;;;;;;21.20;32.70;;;;;;500417;237;1088;-73
2021/03/07 11:16:20;;;;;;;;;;;21.30;32.60;;;;;;500322;237;986;-73
2021/03/07 11:18:21;;;;;;;;;;;21.30;32.60;;;;;;500440;237;1206;-73
2021/03/07 11:20:23;;;;;;;;;;;21.40;32.60;;;;;;500317;237;984;-73
2021/03/07 11:22:24;;;;;;;;;;;21.50;32.70;;;;;;500377;237;973;-73
2021/03/07 11:24:27;;;;;;;;;;;21.60;32.60;;;;;;500315;237;946;-73
2021/03/07 11:26:28;;;;;;;;;;;21.80;32.30;;;;;;500243;237;1024;-73
2021/03/07 11:28:29;;;;;;;;;;;21.80;32.20;;;;;;500316;237;2254;-73
2021/03/07 11:30:31;;;;;;;;;;;21.80;32.20;;;;;;500304;237;1247;-72
2021/03/07 11:32:32;;;;;;;;;;;21.90;32.20;;;;;;500277;237;1150;-72
2021/03/07 11:34:33;;;;;;;;;;;21.90;32.10;;;;;;500399;237;956;-72
2021/03/07 11:36:35;;;;;;;;;;;21.90;32.10;;;;;;500279;237;1056;-73
2021/03/07 11:38:36;;;;;;;;;;;21.90;32.20;;;;;;500321;237;1049;-73
2021/03/07 11:40:38;;;;;;;;;;;21.90;32.20;;;;;;500233;237;1226;-72
2021/03/07 11:42:39;;;;;;;;;;;21.80;32.30;;;;;;500278;237;1065;-73
2021/03/07 11:44:40;;;;;;;;;;;21.80;32.40;;;;;;500385;237;1008;-73
2021/03/07 11:46:41;;;;;;;;;;;21.80;32.30;;;;;;500431;237;1200;-73
2021/03/07 11:48:42;;;;;;;;;;;21.80;32.30;;;;;;500286;237;2199;-72
2021/03/07 11:50:44;;;;;;;;;;;21.80;32.40;;;;;;500281;237;1210;-72
2021/03/07 11:52:45;;;;;;;;;;;21.80;32.40;;;;;;500336;237;1146;-72
2021/03/07 11:54:46;;;;;;;;;;;21.70;32.30;;;;;;500243;237;1095;-73
2021/03/07 11:56:48;;;;;;;;;;;21.80;32.20;;;;;;500328;237;1002;-73
2021/03/07 11:58:49;;;;;;;;;;;21.70;32.20;;;;;;500332;237;1026;-73